createdAt,value
2023-02-19T20:24:31.369Z,4.83
2023-02-19T20:27:04.181Z,4.82
2023-02-19T20:29:36.256Z,4.85
2023-02-19T20:32:08.208Z,4.87
2023-02-19T20:34:39.849Z,4.88
2023-02-19T20:37:12.037Z,4.88
2023-02-19T20:39:43.446Z,4.89
2023-02-19T20:42:17.392Z,4.89
2023-02-19T20:44:49.884Z,4.89
2023-02-19T20:47:22.687Z,4.89
2023-02-19T20:49:54.018Z,4.89
2023-02-19T20:52:25.854Z,4.90
2023-02-19T20:54:59.264Z,4.90
2023-02-19T20:57:32.273Z,4.91
2023-02-19T21:00:04.310Z,4.91
2023-02-19T21:02:36.064Z,4.91
2023-02-19T21:05:10.064Z,4.91
2023-02-19T21:07:41.459Z,4.88
2023-02-19T21:10:15.507Z,4.83
2023-02-19T21:12:46.776Z,4.81
2023-02-19T21:15:18.265Z,4.77
2023-02-19T21:17:49.984Z,4.73
2023-02-19T21:20:21.752Z,4.70
2023-02-19T21:22:53.298Z,4.65
2023-02-19T21:25:25.358Z,4.60
2023-02-19T21:27:56.660Z,4.57
2023-02-19T21:30:29.582Z,4.53
2023-02-19T21:33:02.503Z,4.51
2023-02-19T21:35:35.315Z,4.48
2023-02-19T21:38:08.326Z,4.45
2023-02-19T21:40:41.787Z,4.41
2023-02-19T21:43:15.445Z,4.38
2023-02-19T21:45:50.586Z,4.35
2023-02-19T21:48:22.664Z,4.31
2023-02-19T21:50:54.595Z,4.29
2023-02-19T21:53:27.330Z,4.28
2023-02-19T21:56:00.616Z,4.28
2023-02-19T21:58:32.984Z,4.31
2023-02-19T22:01:08.363Z,4.33
2023-02-19T22:03:41.027Z,4.36
2023-02-19T22:06:16.323Z,4.38
2023-02-19T22:08:49.798Z,4.39
2023-02-19T22:11:22.660Z,4.40
2023-02-19T22:13:54.826Z,4.41
2023-02-19T22:16:28.438Z,4.43
2023-02-19T22:19:01.969Z,4.45
2023-02-19T22:21:37.725Z,4.47
2023-02-19T22:24:16.777Z,4.49
2023-02-19T22:26:51.374Z,4.53
2023-02-19T22:29:25.794Z,4.55
2023-02-19T22:31:58.278Z,4.56
2023-02-19T22:34:30.538Z,4.57
2023-02-19T22:37:02.369Z,4.59
2023-02-19T22:39:34.394Z,4.60
2023-02-19T22:42:07.507Z,4.61
2023-02-19T22:44:39.923Z,4.62
2023-02-19T22:47:11.848Z,4.63
2023-02-19T22:49:45.083Z,4.64
2023-02-19T22:52:17.182Z,4.65
2023-02-19T22:54:48.711Z,4.66
2023-02-19T22:57:20.815Z,4.65
2023-02-19T22:59:51.848Z,4.66
2023-02-19T23:02:26.546Z,4.67
2023-02-19T23:04:57.895Z,4.67
2023-02-19T23:07:29.823Z,4.68
2023-02-19T23:10:01.812Z,4.68
2023-02-19T23:12:33.396Z,4.69
2023-02-19T23:15:05.804Z,4.67
2023-02-19T23:17:37.423Z,4.70
2023-02-19T23:20:10.976Z,4.70
2023-02-19T23:22:42.130Z,4.72
2023-02-19T23:25:13.706Z,4.72
2023-02-19T23:27:44.697Z,4.75
2023-02-19T23:30:18.004Z,4.76
2023-02-19T23:32:49.522Z,4.77
2023-02-19T23:35:21.768Z,4.79
2023-02-19T23:37:53.221Z,4.80
2023-02-19T23:40:24.497Z,4.82
2023-02-19T23:42:57.200Z,4.82
2023-02-19T23:45:30.015Z,4.84
2023-02-19T23:48:02.464Z,4.86
2023-02-19T23:50:34.412Z,4.88
2023-02-19T23:53:07.026Z,4.90
2023-02-19T23:55:38.881Z,4.91
2023-02-19T23:58:09.942Z,4.92
